sensor_id;sensor_type;location;lat;lon;timestamp;pressure;altitude;pressure_sealevel;temperature;humidity
75409;BME280;63979;55.644;37.734;2023-05-10T00:04:50;101183.38;;;10.49;34.88
75409;BME280;63979;55.644;37.734;2023-05-10T00:09:51;101234.34;;;10.82;34.15
75409;BME280;63979;55.644;37.734;2023-05-10T00:14:52;101224.38;;;10.67;35.46
75409;BME280;63979;55.644;37.734;2023-05-10T00:19:54;101236.41;;;10.75;33.98
75409;BME280;63979;55.644;37.734;2023-05-10T00:24:55;101233.47;;;10.62;33.99
75409;BME280;63979;55.644;37.734;2023-05-10T00:29:56;101223.78;;;10.60;35.23
75409;BME280;63979;55.644;37.734;2023-05-10T00:34:58;101243.41;;;10.59;34.29
75409;BME280;63979;55.644;37.734;2023-05-10T00:39:59;101236.41;;;10.56;33.63
75409;BME280;63979;55.644;37.734;2023-05-10T00:45:00;101216.56;;;10.43;33.65
75409;BME280;63979;55.644;37.734;2023-05-10T00:50:02;101241.53;;;10.61;34.95
75409;BME280;63979;55.644;37.734;2023-05-10T00:55:05;101229.91;;;10.43;34.72
75409;BME280;63979;55.644;37.734;2023-05-10T01:00:07;101238.50;;;10.50;34.33
75409;BME280;63979;55.644;37.734;2023-05-10T01:05:09;101223.34;;;10.50;36.81
75409;BME280;63979;55.644;37.734;2023-05-10T01:10:10;101233.81;;;10.55;37.97
75409;BME280;63979;55.644;37.734;2023-05-10T01:15:12;101235.56;;;10.56;36.25
75409;BME280;63979;55.644;37.734;2023-05-10T01:20:15;101222.50;;;10.50;34.36
75409;BME280;63979;55.644;37.734;2023-05-10T01:30:52;101227.81;;;10.50;35.72
75409;BME280;63979;55.644;37.734;2023-05-10T01:36:42;101231.88;;;10.58;39.37
75409;BME280;63979;55.644;37.734;2023-05-10T01:42:11;101227.47;;;10.57;39.63
75409;BME280;63979;55.644;37.734;2023-05-10T01:47:16;101222.63;;;10.47;40.91
75409;BME280;63979;55.644;37.734;2023-05-10T01:52:20;101225.16;;;10.50;41.90
75409;BME280;63979;55.644;37.734;2023-05-10T01:57:26;101222.56;;;10.48;40.32
75409;BME280;63979;55.644;37.734;2023-05-10T02:02:30;101173.97;;;10.21;38.12
75409;BME280;63979;55.644;37.734;2023-05-10T02:07:37;101209.94;;;10.52;39.28
75409;BME280;63979;55.644;37.734;2023-05-10T02:12:41;101222.78;;;10.62;41.69
75409;BME280;63979;55.644;37.734;2023-05-10T02:17:45;101225.09;;;10.70;41.22
75409;BME280;63979;55.644;37.734;2023-05-10T02:22:49;101225.72;;;10.75;42.51
75409;BME280;63979;55.644;37.734;2023-05-10T02:27:54;101201.28;;;10.66;43.41
75409;BME280;63979;55.644;37.734;2023-05-10T02:32:56;101218.31;;;10.82;44.10
75409;BME280;63979;55.644;37.734;2023-05-10T02:37:58;101208.66;;;10.79;42.67
75409;BME280;63979;55.644;37.734;2023-05-10T02:43:01;101219.38;;;10.97;41.76
75409;BME280;63979;55.644;37.734;2023-05-10T02:48:03;101151.09;;;10.72;42.88
75409;BME280;63979;55.644;37.734;2023-05-10T02:53:10;101189.47;;;11.07;42.66
75409;BME280;63979;55.644;37.734;2023-05-10T02:58:12;101217.34;;;11.20;45.20
75409;BME280;63979;55.644;37.734;2023-05-10T03:03:13;101210.91;;;11.24;44.48
75409;BME280;63979;55.644;37.734;2023-05-10T03:08:14;101206.75;;;11.36;42.50
75409;BME280;63979;55.644;37.734;2023-05-10T03:13:37;101212.78;;;11.59;41.01
75409;BME280;63979;55.644;37.734;2023-05-10T03:23:48;101209.59;;;11.86;37.59
75409;BME280;63979;55.644;37.734;2023-05-10T03:28:52;101204.31;;;12.02;40.97
75409;BME280;63979;55.644;37.734;2023-05-10T03:33:53;101192.81;;;12.00;40.45
75409;BME280;63979;55.644;37.734;2023-05-10T03:38:55;101167.78;;;12.01;39.01
75409;BME280;63979;55.644;37.734;2023-05-10T03:43:55;101210.28;;;12.40;39.30
75409;BME280;63979;55.644;37.734;2023-05-10T03:48:57;101208.63;;;12.55;37.57
75409;BME280;63979;55.644;37.734;2023-05-10T03:53:57;101207.06;;;12.67;37.68
75409;BME280;63979;55.644;37.734;2023-05-10T03:58:59;101203.63;;;12.80;35.38
75409;BME280;63979;55.644;37.734;2023-05-10T04:04:00;101197.78;;;12.90;33.28
75409;BME280;63979;55.644;37.734;2023-05-10T04:09:01;101189.81;;;13.04;32.95
75409;BME280;63979;55.644;37.734;2023-05-10T04:14:04;101197.44;;;13.27;33.90
75409;BME280;63979;55.644;37.734;2023-05-10T04:19:05;101189.34;;;13.43;34.60
75409;BME280;63979;55.644;37.734;2023-05-10T04:24:07;101194.16;;;13.52;33.55
75409;BME280;63979;55.644;37.734;2023-05-10T04:29:08;101182.94;;;13.76;33.40
75409;BME280;63979;55.644;37.734;2023-05-10T04:34:09;101185.41;;;14.09;33.45
75409;BME280;63979;55.644;37.734;2023-05-10T04:39:10;101183.81;;;14.34;32.94
75409;BME280;63979;55.644;37.734;2023-05-10T04:44:11;101180.84;;;14.53;33.36
75409;BME280;63979;55.644;37.734;2023-05-10T04:49:12;101186.41;;;14.64;32.60
75409;BME280;63979;55.644;37.734;2023-05-10T04:54:13;101187.50;;;14.89;31.55
75409;BME280;63979;55.644;37.734;2023-05-10T04:59:14;101192.56;;;15.08;30.61
75409;BME280;63979;55.644;37.734;2023-05-10T05:04:15;101165.41;;;15.25;30.03
75409;BME280;63979;55.644;37.734;2023-05-10T05:09:16;101170.22;;;15.74;28.61
75409;BME280;63979;55.644;37.734;2023-05-10T05:14:17;101168.31;;;16.14;27.20
75409;BME280;63979;55.644;37.734;2023-05-10T05:19:18;101173.56;;;16.79;26.11
75409;BME280;63979;55.644;37.734;2023-05-10T05:24:19;101158.13;;;17.41;25.78
75409;BME280;63979;55.644;37.734;2023-05-10T05:29:20;101156.94;;;17.92;24.46
75409;BME280;63979;55.644;37.734;2023-05-10T05:34:21;101152.56;;;18.24;23.48
75409;BME280;63979;55.644;37.734;2023-05-10T05:39:22;101157.41;;;18.65;21.89
75409;BME280;63979;55.644;37.734;2023-05-10T05:44:23;101151.38;;;18.73;21.80
75409;BME280;63979;55.644;37.734;2023-05-10T05:49:24;101146.81;;;18.85;21.55
75409;BME280;63979;55.644;37.734;2023-05-10T05:54:25;101124.25;;;19.39;20.57
75409;BME280;63979;55.644;37.734;2023-05-10T05:59:26;101142.34;;;19.91;20.50
75409;BME280;63979;55.644;37.734;2023-05-10T06:04:28;101144.75;;;20.66;19.32
75409;BME280;63979;55.644;37.734;2023-05-10T06:09:29;101136.28;;;21.09;18.89
75409;BME280;63979;55.644;37.734;2023-05-10T06:14:30;101133.28;;;21.03;17.54
75409;BME280;63979;55.644;37.734;2023-05-10T06:19:31;101138.00;;;21.01;18.01
75409;BME280;63979;55.644;37.734;2023-05-10T06:24:32;101142.34;;;21.32;17.68
75409;BME280;63979;55.644;37.734;2023-05-10T06:29:33;101127.22;;;20.80;17.94
75409;BME280;63979;55.644;37.734;2023-05-10T06:34:34;101137.56;;;21.15;18.28
75409;BME280;63979;55.644;37.734;2023-05-10T06:39:35;101134.06;;;21.53;17.37
75409;BME280;63979;55.644;37.734;2023-05-10T06:44:37;101124.13;;;22.10;17.96
75409;BME280;63979;55.644;37.734;2023-05-10T06:49:38;101118.94;;;22.26;17.00
75409;BME280;63979;55.644;37.734;2023-05-10T06:54:40;101119.19;;;23.15;16.47
75409;BME280;63979;55.644;37.734;2023-05-10T06:59:41;101122.59;;;23.17;15.31
75409;BME280;63979;55.644;37.734;2023-05-10T07:04:42;101131.34;;;23.39;15.06
75409;BME280;63979;55.644;37.734;2023-05-10T07:09:43;101087.75;;;24.68;14.28
75409;BME280;63979;55.644;37.734;2023-05-10T07:14:44;101122.09;;;26.02;13.25
75409;BME280;63979;55.644;37.734;2023-05-10T07:19:46;101113.44;;;26.85;12.15
75409;BME280;63979;55.644;37.734;2023-05-10T07:24:47;101111.84;;;27.53;12.11
75409;BME280;63979;55.644;37.734;2023-05-10T07:29:48;101111.28;;;27.12;12.34
75409;BME280;63979;55.644;37.734;2023-05-10T07:34:49;101088.72;;;26.93;12.43
75409;BME280;63979;55.644;37.734;2023-05-10T07:39:50;101101.34;;;27.33;12.48
75409;BME280;63979;55.644;37.734;2023-05-10T07:44:51;101095.84;;;26.40;12.52
75409;BME280;63979;55.644;37.734;2023-05-10T07:49:52;101098.00;;;25.49;13.87
75409;BME280;63979;55.644;37.734;2023-05-10T07:54:54;101083.38;;;26.38;12.98
75409;BME280;63979;55.644;37.734;2023-05-10T07:59:55;101087.25;;;27.59;12.57
75409;BME280;63979;55.644;37.734;2023-05-10T08:04:56;101095.22;;;29.80;11.39
75409;BME280;63979;55.644;37.734;2023-05-10T08:09:58;101087.00;;;30.50;9.99
75409;BME280;63979;55.644;37.734;2023-05-10T08:14:59;101075.06;;;32.82;9.96
75409;BME280;63979;55.644;37.734;2023-05-10T08:20:00;101077.72;;;34.88;8.51
75409;BME280;63979;55.644;37.734;2023-05-10T08:25:01;101079.72;;;36.06;7.83
75409;BME280;63979;55.644;37.734;2023-05-10T08:30:05;101049.19;;;38.32;5.90
75409;BME280;63979;55.644;37.734;2023-05-10T08:35:08;101072.75;;;39.07;5.93
75409;BME280;63979;55.644;37.734;2023-05-10T08:40:11;101081.16;;;40.45;5.23
75409;BME280;63979;55.644;37.734;2023-05-10T08:45:13;101076.81;;;40.74;4.69
75409;BME280;63979;55.644;37.734;2023-05-10T08:50:17;101073.56;;;42.25;4.37
75409;BME280;63979;55.644;37.734;2023-05-10T08:55:21;101067.50;;;40.59;4.57
75409;BME280;63979;55.644;37.734;2023-05-10T09:00:23;101070.53;;;41.96;4.95
75409;BME280;63979;55.644;37.734;2023-05-10T09:05:25;101059.31;;;41.91;4.69
75409;BME280;63979;55.644;37.734;2023-05-10T09:10:27;101048.66;;;41.52;4.44
75409;BME280;63979;55.644;37.734;2023-05-10T09:15:29;101019.75;;;41.11;5.04
75409;BME280;63979;55.644;37.734;2023-05-10T09:20:29;101049.78;;;41.56;4.30
75409;BME280;63979;55.644;37.734;2023-05-10T09:25:31;101041.34;;;41.21;4.43
75409;BME280;63979;55.644;37.734;2023-05-10T09:30:35;101036.38;;;43.13;3.68
75409;BME280;63979;55.644;37.734;2023-05-10T09:35:36;101033.16;;;40.89;5.18
75409;BME280;63979;55.644;37.734;2023-05-10T09:40:37;101018.91;;;41.16;4.53
75409;BME280;63979;55.644;37.734;2023-05-10T09:45:41;101007.44;;;38.86;5.84
75409;BME280;63979;55.644;37.734;2023-05-10T09:50:41;101008.72;;;34.43;7.47
75409;BME280;63979;55.644;37.734;2023-05-10T09:55:45;100962.28;;;37.12;5.48
75409;BME280;63979;55.644;37.734;2023-05-10T10:00:47;100984.09;;;36.87;6.54
75409;BME280;63979;55.644;37.734;2023-05-10T10:05:51;100974.22;;;34.99;7.13
75409;BME280;63979;55.644;37.734;2023-05-10T10:10:53;100966.78;;;32.78;8.02
75409;BME280;63979;55.644;37.734;2023-05-10T10:15:55;100963.25;;;30.07;9.94
75409;BME280;63979;55.644;37.734;2023-05-10T10:20:55;100957.78;;;29.23;10.57
75409;BME280;63979;55.644;37.734;2023-05-10T10:25:57;100953.22;;;28.87;10.82
75409;BME280;63979;55.644;37.734;2023-05-10T10:31:11;100951.44;;;28.80;10.65
75409;BME280;63979;55.644;37.734;2023-05-10T10:36:15;100944.53;;;28.69;10.74
75409;BME280;63979;55.644;37.734;2023-05-10T10:41:38;100943.34;;;30.66;9.94
75409;BME280;63979;55.644;37.734;2023-05-10T10:52:15;100944.41;;;34.94;7.50
75409;BME280;63979;55.644;37.734;2023-05-10T10:57:21;100943.97;;;34.79;7.49
75409;BME280;63979;55.644;37.734;2023-05-10T11:07:54;100927.75;;;30.32;9.40
75409;BME280;63979;55.644;37.734;2023-05-10T11:12:59;100921.78;;;31.22;9.87
75409;BME280;63979;55.644;37.734;2023-05-10T11:18:24;100869.97;;;30.71;9.27
75409;BME280;63979;55.644;37.734;2023-05-10T11:23:32;100913.44;;;29.39;11.02
75409;BME280;63979;55.644;37.734;2023-05-10T11:28:34;100906.25;;;27.51;12.04
75409;BME280;63979;55.644;37.734;2023-05-10T11:33:46;100885.28;;;26.15;12.57
75409;BME280;63979;55.644;37.734;2023-05-10T11:38:48;100889.28;;;25.57;13.56
75409;BME280;63979;55.644;37.734;2023-05-10T11:43:53;100890.91;;;25.27;13.98
75409;BME280;63979;55.644;37.734;2023-05-10T11:48:59;100887.94;;;25.53;13.80
75409;BME280;63979;55.644;37.734;2023-05-10T11:54:07;100883.13;;;25.55;13.81
75409;BME280;63979;55.644;37.734;2023-05-10T11:59:09;100863.63;;;25.58;12.99
75409;BME280;63979;55.644;37.734;2023-05-10T12:04:10;100853.31;;;25.37;13.39
75409;BME280;63979;55.644;37.734;2023-05-10T12:09:11;100866.16;;;25.75;13.34
75409;BME280;63979;55.644;37.734;2023-05-10T12:14:12;100852.84;;;25.72;13.31
75409;BME280;63979;55.644;37.734;2023-05-10T12:19:18;100855.72;;;25.24;13.62
75409;BME280;63979;55.644;37.734;2023-05-10T12:24:20;100842.47;;;24.72;14.34
75409;BME280;63979;55.644;37.734;2023-05-10T12:29:22;100833.53;;;24.21;14.57
75409;BME280;63979;55.644;37.734;2023-05-10T12:34:30;100837.59;;;24.01;15.22
75409;BME280;63979;55.644;37.734;2023-05-10T12:39:41;100741.50;;;23.14;15.31
75409;BME280;63979;55.644;37.734;2023-05-10T12:44:42;100833.91;;;23.33;15.70
75409;BME280;63979;55.644;37.734;2023-05-10T12:49:43;100850.72;;;22.95;15.54
75409;BME280;63979;55.644;37.734;2023-05-10T12:54:44;100819.81;;;22.86;16.18
75409;BME280;63979;55.644;37.734;2023-05-10T12:59:45;100838.31;;;23.26;16.10
75409;BME280;63979;55.644;37.734;2023-05-10T13:04:46;100832.06;;;23.08;16.44
75409;BME280;63979;55.644;37.734;2023-05-10T13:09:48;100795.31;;;22.60;16.12
75409;BME280;63979;55.644;37.734;2023-05-10T13:14:48;100817.66;;;22.10;17.05
75409;BME280;63979;55.644;37.734;2023-05-10T13:19:49;100817.00;;;21.99;17.37
75409;BME280;63979;55.644;37.734;2023-05-10T13:24:50;100821.59;;;21.53;17.96
75409;BME280;63979;55.644;37.734;2023-05-10T13:29:51;100792.41;;;21.18;18.28
75409;BME280;63979;55.644;37.734;2023-05-10T13:34:51;100814.63;;;21.41;19.71
75409;BME280;63979;55.644;37.734;2023-05-10T13:39:52;100806.53;;;21.31;18.88
75409;BME280;63979;55.644;37.734;2023-05-10T13:44:53;100818.41;;;21.30;19.28
75409;BME280;63979;55.644;37.734;2023-05-10T13:49:54;100815.28;;;21.25;18.35
75409;BME280;63979;55.644;37.734;2023-05-10T13:54:55;100819.97;;;20.86;18.97
75409;BME280;63979;55.644;37.734;2023-05-10T13:59:56;100815.09;;;20.90;19.55
75409;BME280;63979;55.644;37.734;2023-05-10T14:04:57;100814.56;;;20.67;19.54
75409;BME280;63979;55.644;37.734;2023-05-10T14:09:58;100810.84;;;20.68;19.56
75409;BME280;63979;55.644;37.734;2023-05-10T14:14:59;100802.16;;;20.64;19.30
75409;BME280;63979;55.644;37.734;2023-05-10T14:20:00;100807.09;;;20.78;19.43
75409;BME280;63979;55.644;37.734;2023-05-10T14:25:01;100810.84;;;20.68;19.69
75409;BME280;63979;55.644;37.734;2023-05-10T14:30:05;100807.31;;;20.48;19.30
75409;BME280;63979;55.644;37.734;2023-05-10T14:35:07;100796.88;;;20.24;19.79
75409;BME280;63979;55.644;37.734;2023-05-10T14:40:08;100799.72;;;20.03;20.70
75409;BME280;63979;55.644;37.734;2023-05-10T14:45:10;100801.81;;;19.71;20.35
75409;BME280;63979;55.644;37.734;2023-05-10T14:50:11;100786.59;;;19.79;20.23
75409;BME280;63979;55.644;37.734;2023-05-10T14:55:12;100791.72;;;19.92;20.62
75409;BME280;63979;55.644;37.734;2023-05-10T15:00:14;100781.31;;;19.97;20.94
75409;BME280;63979;55.644;37.734;2023-05-10T15:05:16;100780.59;;;19.95;20.53
75409;BME280;63979;55.644;37.734;2023-05-10T15:10:17;100756.75;;;19.70;20.72
75409;BME280;63979;55.644;37.734;2023-05-10T15:15:20;100768.25;;;19.52;21.14
75409;BME280;63979;55.644;37.734;2023-05-10T15:20:21;100783.72;;;19.31;21.65
75409;BME280;63979;55.644;37.734;2023-05-10T15:25:22;100781.47;;;19.06;21.38
75409;BME280;63979;55.644;37.734;2023-05-10T15:30:24;100785.66;;;18.79;21.51
75409;BME280;63979;55.644;37.734;2023-05-10T15:35:26;100777.41;;;18.81;21.95
75409;BME280;63979;55.644;37.734;2023-05-10T15:40:27;100763.13;;;18.58;21.91
75409;BME280;63979;55.644;37.734;2023-05-10T15:45:29;100781.81;;;18.61;22.45
75409;BME280;63979;55.644;37.734;2023-05-10T15:50:30;100770.22;;;18.49;22.55
75409;BME280;63979;55.644;37.734;2023-05-10T15:55:31;100788.00;;;18.52;23.05
75409;BME280;63979;55.644;37.734;2023-05-10T16:00:32;100778.25;;;18.39;22.59
75409;BME280;63979;55.644;37.734;2023-05-10T16:05:33;100764.78;;;18.28;23.00
75409;BME280;63979;55.644;37.734;2023-05-10T16:10:35;100767.09;;;18.12;22.97
75409;BME280;63979;55.644;37.734;2023-05-10T16:15:38;100772.63;;;18.11;23.12
75409;BME280;63979;55.644;37.734;2023-05-10T16:20:39;100760.66;;;17.92;23.96
75409;BME280;63979;55.644;37.734;2023-05-10T16:25:40;100767.97;;;17.81;23.80
75409;BME280;63979;55.644;37.734;2023-05-10T16:30:41;100735.81;;;17.66;24.05
75409;BME280;63979;55.644;37.734;2023-05-10T16:35:43;100770.41;;;17.84;24.29
75409;BME280;63979;55.644;37.734;2023-05-10T16:40:44;100773.50;;;17.79;24.84
75409;BME280;63979;55.644;37.734;2023-05-10T16:45:45;100725.94;;;17.44;25.07
75409;BME280;63979;55.644;37.734;2023-05-10T16:50:46;100776.44;;;17.65;25.50
75409;BME280;63979;55.644;37.734;2023-05-10T16:55:48;100781.50;;;17.58;25.90
75409;BME280;63979;55.644;37.734;2023-05-10T17:00:49;100781.41;;;17.49;25.61
75409;BME280;63979;55.644;37.734;2023-05-10T17:05:50;100777.13;;;17.35;27.25
75409;BME280;63979;55.644;37.734;2023-05-10T17:10:51;100777.63;;;17.18;25.99
75409;BME280;63979;55.644;37.734;2023-05-10T17:15:53;100743.78;;;16.91;26.24
75409;BME280;63979;55.644;37.734;2023-05-10T17:20:54;100734.25;;;16.76;26.80
75409;BME280;63979;55.644;37.734;2023-05-10T17:25:55;100780.44;;;16.94;31.43
75409;BME280;63979;55.644;37.734;2023-05-10T17:30:57;100780.81;;;16.78;31.03
75409;BME280;63979;55.644;37.734;2023-05-10T17:35:58;100775.25;;;16.57;33.77
75409;BME280;63979;55.644;37.734;2023-05-10T17:41:00;100782.19;;;16.37;37.89
75409;BME280;63979;55.644;37.734;2023-05-10T17:46:01;100796.66;;;16.36;37.29
75409;BME280;63979;55.644;37.734;2023-05-10T17:51:03;100796.41;;;16.39;36.55
75409;BME280;63979;55.644;37.734;2023-05-10T17:56:04;100749.66;;;16.05;38.24
75409;BME280;63979;55.644;37.734;2023-05-10T18:01:05;100795.06;;;16.34;37.88
75409;BME280;63979;55.644;37.734;2023-05-10T18:06:06;100804.44;;;16.28;36.07
75409;BME280;63979;55.644;37.734;2023-05-10T18:11:07;100809.06;;;16.15;41.76
75409;BME280;63979;55.644;37.734;2023-05-10T18:16:08;100804.59;;;16.03;41.85
75409;BME280;63979;55.644;37.734;2023-05-10T18:21:12;100803.06;;;15.87;41.27
75409;BME280;63979;55.644;37.734;2023-05-10T18:26:13;100811.59;;;15.81;36.76
75409;BME280;63979;55.644;37.734;2023-05-10T18:31:14;100803.84;;;15.77;33.55
75409;BME280;63979;55.644;37.734;2023-05-10T18:36:16;100808.16;;;15.79;33.32
75409;BME280;63979;55.644;37.734;2023-05-10T18:41:17;100783.88;;;15.68;34.71
75409;BME280;63979;55.644;37.734;2023-05-10T18:46:19;100799.78;;;15.71;37.74
75409;BME280;63979;55.644;37.734;2023-05-10T18:51:20;100784.38;;;15.37;39.82
75409;BME280;63979;55.644;37.734;2023-05-10T18:56:22;100809.16;;;15.29;41.72
75409;BME280;63979;55.644;37.734;2023-05-10T19:01:23;100742.75;;;14.80;44.37
75409;BME280;63979;55.644;37.734;2023-05-10T19:06:25;100804.00;;;15.13;44.77
75409;BME280;63979;55.644;37.734;2023-05-10T19:11:26;100815.06;;;15.21;45.10
75409;BME280;63979;55.644;37.734;2023-05-10T19:16:27;100756.59;;;14.87;45.94
75409;BME280;63979;55.644;37.734;2023-05-10T19:21:29;100771.34;;;14.94;46.71
75409;BME280;63979;55.644;37.734;2023-05-10T19:26:30;100756.28;;;14.79;46.47
75409;BME280;63979;55.644;37.734;2023-05-10T19:31:31;100755.25;;;14.69;46.75
75409;BME280;63979;55.644;37.734;2023-05-10T19:36:34;100812.00;;;15.02;45.93
75409;BME280;63979;55.644;37.734;2023-05-10T19:41:35;100788.34;;;14.94;44.20
75409;BME280;63979;55.644;37.734;2023-05-10T19:46:35;100798.25;;;14.94;39.68
75409;BME280;63979;55.644;37.734;2023-05-10T19:51:36;100767.72;;;14.70;37.10
75409;BME280;63979;55.644;37.734;2023-05-10T19:56:37;100807.28;;;14.93;39.53
75409;BME280;63979;55.644;37.734;2023-05-10T20:01:38;100809.19;;;14.91;41.69
75409;BME280;63979;55.644;37.734;2023-05-10T20:06:39;100811.13;;;14.89;41.78
75409;BME280;63979;55.644;37.734;2023-05-10T20:11:40;100818.44;;;14.87;39.78
75409;BME280;63979;55.644;37.734;2023-05-10T20:16:41;100759.44;;;14.60;39.66
75409;BME280;63979;55.644;37.734;2023-05-10T20:21:43;100799.09;;;14.82;40.65
75409;BME280;63979;55.644;37.734;2023-05-10T20:26:44;100809.63;;;14.85;39.37
75409;BME280;63979;55.644;37.734;2023-05-10T20:31:45;100814.56;;;14.78;42.39
75409;BME280;63979;55.644;37.734;2023-05-10T20:36:46;100815.66;;;14.63;41.04
75409;BME280;63979;55.644;37.734;2023-05-10T20:41:47;100828.00;;;14.65;38.86
75409;BME280;63979;55.644;37.734;2023-05-10T20:46:49;100828.09;;;14.51;40.19
75409;BME280;63979;55.644;37.734;2023-05-10T20:51:50;100813.03;;;14.49;38.86
75409;BME280;63979;55.644;37.734;2023-05-10T20:56:51;100815.50;;;14.52;36.89
75409;BME280;63979;55.644;37.734;2023-05-10T21:01:52;100810.13;;;14.52;36.13
75409;BME280;63979;55.644;37.734;2023-05-10T21:06:53;100815.41;;;14.53;37.30
75409;BME280;63979;55.644;37.734;2023-05-10T21:11:57;100808.53;;;14.49;37.68
75409;BME280;63979;55.644;37.734;2023-05-10T21:16:58;100813.47;;;14.43;38.73
75409;BME280;63979;55.644;37.734;2023-05-10T21:21:59;100808.50;;;14.36;38.99
75409;BME280;63979;55.644;37.734;2023-05-10T21:27:00;100813.88;;;14.36;39.21
75409;BME280;63979;55.644;37.734;2023-05-10T21:32:02;100774.38;;;14.12;39.87
75409;BME280;63979;55.644;37.734;2023-05-10T21:37:03;100775.31;;;13.98;42.98
75409;BME280;63979;55.644;37.734;2023-05-10T21:42:04;100807.97;;;14.04;44.16
75409;BME280;63979;55.644;37.734;2023-05-10T21:47:05;100817.63;;;13.94;42.15
75409;BME280;63979;55.644;37.734;2023-05-10T21:52:07;100799.25;;;13.88;41.50
75409;BME280;63979;55.644;37.734;2023-05-10T21:57:08;100815.81;;;13.95;41.34
75409;BME280;63979;55.644;37.734;2023-05-10T22:02:09;100805.81;;;13.97;41.03
75409;BME280;63979;55.644;37.734;2023-05-10T22:07:10;100802.78;;;13.89;40.58
75409;BME280;63979;55.644;37.734;2023-05-10T22:12:11;100812.47;;;13.91;36.99
75409;BME280;63979;55.644;37.734;2023-05-10T22:17:12;100801.94;;;13.88;41.35
75409;BME280;63979;55.644;37.734;2023-05-10T22:22:13;100753.09;;;13.56;42.54
75409;BME280;63979;55.644;37.734;2023-05-10T22:27:15;100788.00;;;13.69;43.46
75409;BME280;63979;55.644;37.734;2023-05-10T22:32:16;100819.94;;;13.86;44.08
75409;BME280;63979;55.644;37.734;2023-05-10T22:37:18;100815.63;;;13.84;44.37
75409;BME280;63979;55.644;37.734;2023-05-10T22:42:19;100803.59;;;13.77;44.15
75409;BME280;63979;55.644;37.734;2023-05-10T22:47:20;100811.34;;;13.81;43.93
75409;BME280;63979;55.644;37.734;2023-05-10T22:52:21;100754.06;;;13.41;45.09
75409;BME280;63979;55.644;37.734;2023-05-10T22:57:22;100769.97;;;13.44;45.88
75409;BME280;63979;55.644;37.734;2023-05-10T23:02:24;100811.19;;;13.70;46.01
75409;BME280;63979;55.644;37.734;2023-05-10T23:07:25;100824.50;;;13.71;46.24
75409;BME280;63979;55.644;37.734;2023-05-10T23:12:26;100800.09;;;13.62;46.99
75409;BME280;63979;55.644;37.734;2023-05-10T23:17:27;100804.16;;;13.55;47.52
75409;BME280;63979;55.644;37.734;2023-05-10T23:22:28;100804.81;;;13.58;44.74
75409;BME280;63979;55.644;37.734;2023-05-10T23:27:30;100809.53;;;13.55;40.22
75409;BME280;63979;55.644;37.734;2023-05-10T23:32:31;100810.09;;;13.46;38.78
75409;BME280;63979;55.644;37.734;2023-05-10T23:37:32;100811.81;;;13.47;38.94
75409;BME280;63979;55.644;37.734;2023-05-10T23:42:33;100824.25;;;13.48;38.13
75409;BME280;63979;55.644;37.734;2023-05-10T23:47:34;100811.16;;;13.43;37.59
75409;BME280;63979;55.644;37.734;2023-05-10T23:52:36;100808.16;;;13.48;42.27
75409;BME280;63979;55.644;37.734;2023-05-10T23:57:37;100815.06;;;13.52;42.41
